Time;durP1;ratioP1;P1;durP2;ratioP2;P2;SDS_P1;SDS_P2;PMS_P1;PMS_P2;Temp;Humidity;BMP_temperature;BMP_pressure;BME280_temperature;BME280_humidity;BME280_pressure;Samples;Min_cycle;Max_cycle;Signal;HPM_P1;HPM_P2
2022/11/16 03:01:44;;;;;;;15.47;14.40;;;9.70;99.90;;;;;;5398975;23;20243;-85
2022/11/16 03:04:18;;;;;;;15.73;14.63;;;9.70;99.90;;;;;;4899177;29;20212;-85
2022/11/16 03:06:48;;;;;;;16.27;15.10;;;9.70;99.90;;;;;;4899977;29;20208;-85
2022/11/16 03:09:20;;;;;;;15.80;14.70;;;9.70;99.90;;;;;;4895837;29;20205;-85
2022/11/16 03:11:58;;;;;;;15.00;14.10;;;9.70;99.90;;;;;;4886847;29;20220;-83
2022/11/16 03:14:30;;;;;;;15.90;14.70;;;9.70;99.90;;;;;;4878048;29;20296;-85
2022/11/16 03:17:00;;;;;;;15.37;14.37;;;9.70;99.90;;;;;;4874553;29;20206;-86
2022/11/16 03:19:35;;;;;;;15.00;14.00;;;9.70;99.90;;;;;;4873248;29;20194;-85
2022/11/16 03:22:09;;;;;;;16.23;15.13;;;9.60;99.90;;;;;;4873721;29;20217;-84
2022/11/16 03:24:39;;;;;;;17.97;16.57;;;9.60;99.90;;;;;;4871813;29;20281;-84
2022/11/16 03:27:10;;;;;;;17.57;16.27;;;9.60;99.90;;;;;;4873972;29;20763;-83
2022/11/16 03:29:42;;;;;;;16.13;15.03;;;9.60;99.90;;;;;;4876552;29;20206;-85
2022/11/16 03:32:19;;;;;;;17.60;16.30;;;9.50;99.90;;;;;;4878679;29;20225;-83
2022/11/16 03:34:53;;;;;;;17.00;15.90;;;9.60;99.90;;;;;;4876747;29;20229;-83
2022/11/16 03:37:22;;;;;;;17.27;16.07;;;9.50;99.90;;;;;;4874691;29;20296;-83
2022/11/16 03:39:52;;;;;;;17.13;15.87;;;9.50;99.90;;;;;;4878523;29;20295;-84
2022/11/16 03:42:22;;;;;;;17.30;16.10;;;9.50;99.90;;;;;;4874044;29;20315;-88
2022/11/16 03:44:50;;;;;;;17.87;16.57;;;9.50;99.90;;;;;;4875518;29;20577;-83
2022/11/16 03:47:18;;;;;;;17.00;15.70;;;9.50;99.90;;;;;;4875449;29;20296;-82
2022/11/16 03:49:46;;;;;;;16.60;15.40;;;9.50;99.90;;;;;;4876540;29;20285;-86
2022/11/16 03:52:16;;;;;;;17.10;15.80;;;9.50;99.90;;;;;;4880776;29;20236;-83
2022/11/16 03:54:43;;;;;;;17.10;15.90;;;9.50;99.90;;;;;;4876635;29;20218;-82
2022/11/16 03:57:14;;;;;;;16.50;15.37;;;9.50;99.90;;;;;;4881679;29;20257;-82
2022/11/16 03:59:45;;;;;;;16.53;15.40;;;9.50;99.90;;;;;;4875095;29;20205;-80
2022/11/16 04:02:12;;;;;;;17.67;16.37;;;9.50;99.90;;;;;;4881815;29;20319;-83
2022/11/16 04:24:12;;;;;;;16.10;15.10;;;9.60;99.90;;;;;;4877028;29;20245;-81
2022/11/16 04:29:25;;;;;;;17.50;16.30;;;9.70;99.90;;;;;;4877541;29;20201;-83
2022/11/16 04:40:09;;;;;;;17.67;16.47;;;9.60;99.90;;;;;;4882431;29;20669;-80
2022/11/16 04:42:36;;;;;;;17.47;16.33;;;9.70;99.90;;;;;;4881371;29;20876;-81
2022/11/16 04:47:53;;;;;;;17.37;16.27;;;9.70;99.90;;;;;;4878298;29;20209;-82
2022/11/16 04:50:23;;;;;;;17.93;16.83;;;9.70;99.90;;;;;;4874715;29;20229;-82
2022/11/16 04:52:52;;;;;;;16.63;15.63;;;9.70;99.90;;;;;;4873017;29;20212;-83
2022/11/16 04:55:20;;;;;;;18.20;16.90;;;9.80;99.90;;;;;;4872040;29;20224;-83
2022/11/16 04:57:48;;;;;;;17.70;16.40;;;9.80;99.90;;;;;;4881357;29;20225;-84
2022/11/16 05:00:17;;;;;;;17.90;16.70;;;9.80;99.90;;;;;;4871689;29;20690;-84
2022/11/16 05:02:45;;;;;;;17.30;16.20;;;9.80;99.90;;;;;;4881365;29;20233;-84
2022/11/16 05:05:13;;;;;;;17.37;16.27;;;9.80;99.90;;;;;;4875077;29;20206;-84
2022/11/16 05:07:42;;;;;;;17.57;16.37;;;9.80;99.90;;;;;;4871896;29;20206;-84
2022/11/16 05:10:17;;;;;;;18.40;17.10;;;9.90;99.90;;;;;;4873770;29;20212;-84
2022/11/16 05:12:44;;;;;;;17.00;16.00;;;9.80;99.90;;;;;;4876935;29;20636;-84
2022/11/16 05:15:11;;;;;;;19.00;17.70;;;9.80;99.90;;;;;;4873284;29;20263;-84
2022/11/16 05:17:39;;;;;;;19.37;18.17;;;9.70;99.90;;;;;;4876481;29;20218;-84
2022/11/16 05:23:02;;;;;;;20.27;18.87;;;9.70;99.90;;;;;;4876869;29;20201;-84
2022/11/16 05:25:34;;;;;;;19.83;18.33;;;9.70;99.90;;;;;;4873688;29;20210;-84
2022/11/16 05:28:02;;;;;;;18.97;17.67;;;9.80;99.90;;;;;;4872411;29;20229;-84
2022/11/16 05:30:32;;;;;;;19.40;18.00;;;9.70;99.90;;;;;;4880087;29;20201;-83
2022/11/16 05:33:00;;;;;;;17.73;16.50;;;9.80;99.90;;;;;;4876916;29;20220;-84
2022/11/16 05:35:30;;;;;;;17.90;16.70;;;9.80;99.90;;;;;;4872045;29;20229;-84
2022/11/16 05:37:56;;;;;;;17.63;16.53;;;9.80;99.90;;;;;;4876381;29;20205;-84
2022/11/16 05:40:23;;;;;;;17.47;16.37;;;9.80;99.90;;;;;;4876637;29;20201;-84
2022/11/16 05:42:59;;;;;;;17.10;16.00;;;9.80;99.90;;;;;;4875939;29;20208;-84
2022/11/16 05:45:28;;;;;;;17.10;16.10;;;9.80;99.90;;;;;;4879491;29;20200;-84
2022/11/16 05:47:58;;;;;;;17.00;15.90;;;9.80;99.90;;;;;;4868554;29;20202;-84
2022/11/16 05:50:24;;;;;;;17.10;15.90;;;9.80;99.90;;;;;;4871215;29;20199;-84
2022/11/16 05:53:04;;;;;;;16.90;15.83;;;9.80;99.90;;;;;;4871891;29;20235;-85
2022/11/16 05:55:31;;;;;;;15.97;15.07;;;9.80;99.90;;;;;;4876497;29;20221;-84
2022/11/16 05:57:59;;;;;;;16.53;15.60;;;9.80;99.90;;;;;;4875775;29;20680;-84
2022/11/16 06:00:26;;;;;;;16.70;15.70;;;9.90;99.90;;;;;;4871214;29;20197;-85
2022/11/16 06:02:54;;;;;;;16.73;15.73;;;9.80;99.90;;;;;;4878865;29;20205;-84
2022/11/16 06:05:26;;;;;;;16.53;15.60;;;9.80;99.90;;;;;;4871958;29;20202;-84
2022/11/16 06:07:54;;;;;;;16.90;15.90;;;9.90;99.90;;;;;;4871695;29;20269;-84
2022/11/16 06:10:22;;;;;;;16.90;15.90;;;9.80;99.90;;;;;;4871615;29;20205;-84
2022/11/16 06:12:51;;;;;;;17.23;16.20;;;9.80;99.90;;;;;;4872905;29;20197;-84
2022/11/16 06:15:19;;;;;;;17.60;16.50;;;9.80;99.90;;;;;;4877948;29;20639;-84
2022/11/16 06:17:48;;;;;;;17.07;16.07;;;9.80;99.90;;;;;;4874244;29;20198;-84
2022/11/16 06:20:16;;;;;;;17.37;16.37;;;9.80;99.90;;;;;;4874685;29;20678;-84
2022/11/16 06:22:44;;;;;;;16.70;15.70;;;9.80;99.90;;;;;;4877453;29;20225;-84
2022/11/16 06:25:12;;;;;;;16.43;15.43;;;9.80;99.90;;;;;;4866127;29;20312;-84
2022/11/16 06:27:42;;;;;;;17.13;16.10;;;9.70;99.90;;;;;;4868064;29;20214;-84
2022/11/16 06:30:11;;;;;;;16.93;15.93;;;9.70;99.90;;;;;;4872507;29;20201;-84
2022/11/16 06:32:40;;;;;;;17.70;16.60;;;9.70;99.90;;;;;;4874561;29;20266;-84
2022/11/16 06:35:08;;;;;;;17.10;16.10;;;9.70;99.90;;;;;;4873658;29;20217;-84
2022/11/16 06:37:37;;;;;;;18.20;17.00;;;9.70;99.90;;;;;;4878389;29;20202;-84
2022/11/16 06:40:04;;;;;;;18.27;17.03;;;9.60;99.90;;;;;;4879356;29;20213;-84
2022/11/16 06:42:35;;;;;;;18.50;17.20;;;9.60;99.90;;;;;;4875548;29;20221;-83
2022/11/16 06:45:02;;;;;;;18.07;16.97;;;9.60;99.90;;;;;;4874958;29;20205;-84
2022/11/16 06:47:35;;;;;;;17.90;16.80;;;9.70;99.90;;;;;;4874758;29;20296;-84
2022/11/16 06:50:04;;;;;;;17.57;16.47;;;9.60;99.90;;;;;;4884929;29;20551;-84
2022/11/16 06:52:31;;;;;;;17.57;16.47;;;9.60;99.90;;;;;;4876540;29;20224;-84
2022/11/16 06:54:58;;;;;;;17.10;16.10;;;9.60;99.90;;;;;;4874913;29;20305;-84
2022/11/16 06:57:25;;;;;;;16.70;15.70;;;9.60;99.90;;;;;;4879372;29;20558;-83
2022/11/16 06:59:52;;;;;;;16.67;15.67;;;9.60;99.90;;;;;;4877433;29;20689;-84
2022/11/16 07:02:20;;;;;;;17.67;16.47;;;9.60;99.90;;;;;;4876047;29;20329;-84
2022/11/16 07:04:47;;;;;;;17.50;16.40;;;9.60;99.90;;;;;;4874341;29;20227;-85
2022/11/16 07:07:16;;;;;;;17.37;16.27;;;9.60;99.90;;;;;;4875300;29;20205;-85
2022/11/16 07:09:45;;;;;;;17.00;15.90;;;9.60;99.90;;;;;;4877688;29;20212;-85
2022/11/16 07:12:14;;;;;;;16.30;15.30;;;9.70;99.90;;;;;;4879114;29;20229;-85
2022/11/16 07:14:41;;;;;;;15.50;14.60;;;9.70;99.90;;;;;;4873235;29;20772;-84
2022/11/16 07:17:09;;;;;;;16.07;15.07;;;9.70;99.90;;;;;;4875124;29;20734;-84
2022/11/16 07:19:37;;;;;;;16.53;15.43;;;9.80;99.90;;;;;;4884930;29;20646;-84
2022/11/16 07:22:05;;;;;;;16.10;15.13;;;9.70;99.90;;;;;;4868597;29;20253;-84
2022/11/16 07:24:33;;;;;;;15.63;14.70;;;9.80;99.90;;;;;;4873828;29;20197;-84
2022/11/16 07:27:00;;;;;;;15.57;14.63;;;9.80;99.90;;;;;;4869578;29;20637;-84
2022/11/16 07:29:31;;;;;;;15.20;14.30;;;9.80;99.90;;;;;;4871121;29;20197;-84
2022/11/16 07:32:17;;;;;;;15.60;14.70;;;9.80;99.90;;;;;;4874533;29;20286;-84
2022/11/16 07:35:04;;;;;;;15.37;14.47;;;9.80;99.90;;;;;;4870753;29;20218;-84
2022/11/16 07:37:31;;;;;;;16.73;15.77;;;9.80;99.90;;;;;;4877515;29;20197;-84
2022/11/16 07:40:00;;;;;;;15.60;14.70;;;9.90;99.90;;;;;;4877182;29;20213;-84
2022/11/16 07:42:28;;;;;;;15.67;14.73;;;9.90;99.90;;;;;;4873771;29;20281;-84
2022/11/16 07:45:14;;;;;;;10.27;9.57;;;9.90;99.90;;;;;;4880431;29;20560;-84
2022/11/16 07:47:51;;;;;;;15.77;14.77;;;10.00;99.90;;;;;;4878879;29;20205;-84
2022/11/16 07:50:25;;;;;;;14.37;13.57;;;10.00;99.90;;;;;;4867711;29;20221;-82
2022/11/16 07:52:52;;;;;;;17.20;16.20;;;10.10;99.90;;;;;;4873234;29;20216;-81
2022/11/16 07:55:24;;;;;;;16.67;15.67;;;10.20;99.90;;;;;;4879881;29;20220;-84
2022/11/16 07:57:52;;;;;;;16.60;15.60;;;10.30;99.90;;;;;;4877006;29;20287;-84
2022/11/16 08:00:19;;;;;;;15.40;14.50;;;10.30;99.90;;;;;;4878723;29;20240;-84
2022/11/16 08:02:56;;;;;;;15.83;14.83;;;10.30;99.90;;;;;;4874397;29;20241;-84
2022/11/16 08:05:23;;;;;;;15.63;14.70;;;10.30;99.90;;;;;;4873071;29;20201;-84
2022/11/16 08:07:51;;;;;;;16.23;15.23;;;10.40;99.90;;;;;;4878883;29;20209;-84
2022/11/16 08:10:22;;;;;;;15.60;14.60;;;10.50;99.90;;;;;;4872800;29;20224;-84
2022/11/16 08:12:50;;;;;;;15.37;14.37;;;10.60;99.90;;;;;;4881596;29;20206;-81
2022/11/16 08:15:18;;;;;;;15.33;14.43;;;11.00;99.90;;;;;;4877116;29;20260;-79
2022/11/16 08:17:45;;;;;;;14.63;13.73;;;11.40;99.90;;;;;;4874720;29;20610;-85
2022/11/16 08:20:13;;;;;;;6.73;6.13;;;11.70;99.90;;;;;;4871037;29;20214;-84
2022/11/16 08:22:41;;;;;;;12.07;11.37;;;12.10;99.90;;;;;;4868840;29;20699;-84
2022/11/16 08:25:09;;;;;;;11.07;10.27;;;12.40;99.90;;;;;;4869057;29;20198;-84
2022/11/16 08:27:39;;;;;;;4.60;4.20;;;12.60;99.90;;;;;;4874036;29;20205;-84
2022/11/16 08:30:08;;;;;;;4.17;3.80;;;12.60;99.90;;;;;;4875319;29;20212;-84
2022/11/16 08:32:36;;;;;;;8.07;7.40;;;12.50;99.90;;;;;;4877498;29;20225;-84
2022/11/16 08:35:05;;;;;;;5.97;5.37;;;12.50;99.90;;;;;;4873299;29;20736;-84
2022/11/16 08:37:32;;;;;;;7.17;6.67;;;12.40;99.90;;;;;;4875464;29;20208;-84
2022/11/16 08:40:01;;;;;;;6.77;6.17;;;12.30;99.90;;;;;;4876555;29;20209;-84
2022/11/16 08:42:28;;;;;;;8.30;7.70;;;12.20;99.90;;;;;;4877817;29;20220;-84
2022/11/16 08:44:56;;;;;;;8.57;7.97;;;12.20;99.90;;;;;;4870674;29;20590;-84
2022/11/16 08:47:23;;;;;;;10.43;9.70;;;12.20;99.90;;;;;;4874947;29;20197;-84
2022/11/16 08:49:56;;;;;;;4.17;3.87;;;12.20;99.90;;;;;;4870718;29;20209;-84
2022/11/16 08:52:25;;;;;;;4.03;3.70;;;12.10;99.90;;;;;;4876024;29;20224;-84
2022/11/16 08:54:53;;;;;;;11.00;10.30;;;12.10;99.90;;;;;;4871656;29;20205;-84
2022/11/16 08:57:21;;;;;;;4.40;4.00;;;12.10;99.90;;;;;;4874511;29;20204;-84
2022/11/16 08:59:53;;;;;;;4.50;4.10;;;12.20;99.90;;;;;;4873994;29;20292;-85
2022/11/16 09:02:24;;;;;;;4.23;3.90;;;12.20;99.90;;;;;;4873295;29;20231;-85
2022/11/16 09:04:51;;;;;;;4.63;4.23;;;12.20;99.90;;;;;;4873514;29;20597;-84
2022/11/16 09:07:18;;;;;;;4.40;4.00;;;12.30;99.90;;;;;;4870209;29;20208;-84
2022/11/16 09:09:44;;;;;;;4.30;3.90;;;12.40;99.90;;;;;;4871408;29;20205;-84
2022/11/16 09:12:11;;;;;;;10.30;9.60;;;12.50;99.90;;;;;;4871394;29;20228;-84
2022/11/16 09:14:38;;;;;;;8.17;7.50;;;12.50;99.90;;;;;;4874623;29;20201;-84
2022/11/16 09:17:05;;;;;;;11.60;10.80;;;12.60;99.90;;;;;;4870925;29;20285;-84
2022/11/16 09:19:33;;;;;;;11.77;11.00;;;12.60;99.90;;;;;;4871284;29;20214;-85
2022/11/16 09:22:00;;;;;;;11.33;10.63;;;12.60;99.90;;;;;;4874555;29;20252;-85
2022/11/16 09:24:27;;;;;;;5.93;5.43;;;12.60;99.90;;;;;;4870363;29;20205;-82
2022/11/16 09:26:55;;;;;;;9.37;8.77;;;12.50;99.90;;;;;;4870619;29;20201;-84
2022/11/16 09:29:22;;;;;;;5.80;5.40;;;12.50;99.90;;;;;;4874875;29;20244;-84
2022/11/16 09:31:49;;;;;;;8.93;8.33;;;12.50;99.90;;;;;;4870702;29;20656;-84
2022/11/16 09:34:16;;;;;;;8.20;7.67;;;12.50;99.90;;;;;;4872073;29;20205;-84
2022/11/16 09:36:44;;;;;;;3.93;3.63;;;12.40;99.90;;;;;;4875547;29;20737;-84
2022/11/16 09:39:12;;;;;;;4.47;3.70;;;12.40;99.90;;;;;;4871635;29;20629;-84
2022/11/16 09:41:53;;;;;;;4.40;4.07;;;12.50;99.90;;;;;;4874076;29;20229;-84
2022/11/16 09:44:44;;;;;;;3.50;3.20;;;12.60;99.90;;;;;;4870781;29;20201;-84
2022/11/16 09:47:17;;;;;;;3.40;3.20;;;12.80;99.90;;;;;;4872341;29;20233;-83
2022/11/16 09:49:51;;;;;;;3.33;3.07;;;13.00;99.90;;;;;;4879560;29;20232;-83
2022/11/16 09:52:28;;;;;;;3.77;3.33;;;13.10;99.90;;;;;;4878528;29;20229;-82
2022/11/16 09:54:58;;;;;;;3.10;2.90;;;13.10;99.90;;;;;;4880501;29;20650;-83
2022/11/16 09:57:31;;;;;;;2.83;2.63;;;13.10;99.90;;;;;;4880793;29;20205;-82
2022/11/16 10:00:03;;;;;;;3.00;2.70;;;13.10;99.90;;;;;;4870036;29;20217;-81
2022/11/16 10:02:44;;;;;;;3.40;3.10;;;13.20;99.90;;;;;;4872775;29;20233;-83
2022/11/16 10:05:19;;;;;;;3.63;2.73;;;13.40;99.90;;;;;;4880000;29;20217;-83
2022/11/16 10:07:50;;;;;;;2.90;2.70;;;13.60;99.90;;;;;;4870296;29;20215;-83
2022/11/16 10:10:32;;;;;;;5.00;4.60;;;13.70;99.90;;;;;;4881604;29;20600;-84
2022/11/16 10:13:05;;;;;;;5.30;4.90;;;13.80;99.90;;;;;;4877279;29;20209;-84
2022/11/16 10:15:47;;;;;;;2.97;2.67;;;13.80;99.90;;;;;;4874284;29;20221;-82
2022/11/16 10:18:27;;;;;;;2.70;2.50;;;13.60;99.90;;;;;;4897821;29;20674;-83
2022/11/16 10:21:07;;;;;;;7.90;7.30;;;13.50;99.90;;;;;;4873333;29;20748;-83
2022/11/16 10:23:49;;;;;;;6.57;6.13;;;13.40;99.90;;;;;;4880348;29;20218;-83
2022/11/16 10:26:26;;;;;;;2.80;2.60;;;13.30;99.90;;;;;;4897834;29;20646;-83
2022/11/16 10:29:09;;;;;;;2.83;2.63;;;13.20;99.90;;;;;;4881964;29;20205;-83
2022/11/16 10:31:51;;;;;;;2.77;2.60;;;13.30;99.90;;;;;;4883158;29;20236;-83
2022/11/16 10:34:22;;;;;;;2.97;2.77;;;13.20;99.90;;;;;;4881654;29;20216;-83
2022/11/16 10:36:49;;;;;;;3.47;2.80;;;13.20;99.90;;;;;;4871967;29;20221;-86
2022/11/16 10:39:19;;;;;;;2.80;2.60;;;13.20;99.90;;;;;;4881777;29;20233;-81
2022/11/16 10:41:48;;;;;;;3.50;2.70;;;13.40;99.90;;;;;;4877806;29;20245;-82
2022/11/16 10:44:25;;;;;;;2.53;2.33;;;13.60;99.90;;;;;;4882871;29;20205;-83
2022/11/16 10:46:58;;;;;;;2.90;2.53;;;13.80;99.90;;;;;;4881537;29;20197;-84
2022/11/16 10:49:30;;;;;;;4.30;2.67;;;13.80;99.90;;;;;;4884398;29;20224;-81
2022/11/16 10:51:58;;;;;;;2.80;2.60;;;13.80;99.90;;;;;;4873339;29;20236;-83
2022/11/16 10:54:26;;;;;;;3.40;3.10;;;14.00;99.90;;;;;;4879998;29;20213;-83
2022/11/16 10:57:02;;;;;;;3.57;2.50;;;14.30;99.90;;;;;;4882203;29;20278;-83
2022/11/16 10:59:39;;;;;;;3.47;2.40;;;14.50;99.90;;;;;;4874850;29;20680;-84
2022/11/16 11:02:27;;;;;;;3.93;2.67;;;14.50;99.90;;;;;;4883326;29;20234;-83
2022/11/16 11:05:07;;;;;;;4.40;4.10;;;14.60;99.90;;;;;;4881977;29;20209;-84
2022/11/16 11:07:38;;;;;;;4.20;4.00;;;14.70;99.90;;;;;;4874530;29;20664;-83
2022/11/16 11:10:24;;;;;;;4.40;4.10;;;14.70;99.90;;;;;;4883338;29;20218;-83
2022/11/16 11:13:22;;;;;;;4.37;4.07;;;14.70;99.90;;;;;;4873517;29;20212;-83
2022/11/16 11:15:50;;;;;;;4.97;4.67;;;14.90;99.90;;;;;;4875822;29;20219;-83
2022/11/16 11:18:26;;;;;;;6.70;6.30;;;14.80;99.90;;;;;;4874938;29;20278;-83
2022/11/16 11:21:05;;;;;;;5.13;4.83;;;14.90;99.90;;;;;;4881127;29;20235;-83
2022/11/16 11:23:42;;;;;;;6.27;5.97;;;15.00;99.90;;;;;;4873868;29;20236;-84
2022/11/16 11:26:31;;;;;;;6.53;6.13;;;15.10;99.90;;;;;;4877283;29;20228;-83
2022/11/16 11:29:01;;;;;;;10.20;9.50;;;15.00;99.90;;;;;;4880639;29;20204;-84
2022/11/16 11:31:35;;;;;;;3.47;3.27;;;14.90;99.90;;;;;;4878693;29;20235;-84
2022/11/16 11:34:13;;;;;;;3.20;2.90;;;14.80;99.90;;;;;;4871552;29;20212;-84
2022/11/16 11:36:45;;;;;;;2.67;2.50;;;14.70;99.90;;;;;;4871432;29;20216;-84
2022/11/16 11:39:28;;;;;;;9.87;9.20;;;14.50;99.90;;;;;;4881867;29;20210;-84
2022/11/16 11:42:07;;;;;;;3.80;2.60;;;14.40;99.90;;;;;;4880780;29;20226;-84
2022/11/16 11:44:42;;;;;;;2.50;2.30;;;14.30;99.90;;;;;;4873009;29;20213;-84
2022/11/16 11:47:27;;;;;;;2.70;2.50;;;14.20;99.90;;;;;;4881611;29;20222;-84
2022/11/16 11:50:02;;;;;;;2.73;2.20;;;14.00;99.90;;;;;;4871853;29;20230;-84
2022/11/16 11:52:37;;;;;;;2.50;2.30;;;13.80;99.90;;;;;;4873991;29;20226;-84
2022/11/16 11:55:06;;;;;;;3.80;2.50;;;13.70;99.90;;;;;;4874974;29;20205;-83
2022/11/16 11:57:39;;;;;;;2.80;2.57;;;13.50;99.90;;;;;;4878143;29;20244;-84
2022/11/16 12:00:12;;;;;;;2.50;2.40;;;13.40;99.90;;;;;;4872098;29;20259;-84
2022/11/16 12:03:10;;;;;;;2.70;2.50;;;13.40;99.90;;;;;;4877477;29;20299;-83
2022/11/16 12:06:02;;;;;;;3.70;2.83;;;13.30;99.90;;;;;;4876817;29;20212;-83
2022/11/16 12:08:44;;;;;;;9.00;8.40;;;13.10;99.90;;;;;;4881994;29;20679;-83
2022/11/16 12:11:20;;;;;;;6.53;6.13;;;13.00;99.90;;;;;;4870357;29;20244;-83
2022/11/16 12:14:00;;;;;;;4.73;4.43;;;12.90;99.90;;;;;;4882419;29;20275;-83
2022/11/16 12:16:32;;;;;;;7.27;6.80;;;12.90;99.90;;;;;;4880591;29;20217;-85
2022/11/16 12:19:24;;;;;;;5.70;5.40;;;13.10;99.90;;;;;;4883050;29;20228;-84
2022/11/16 12:22:03;;;;;;;8.93;8.23;;;13.10;99.90;;;;;;4877913;29;20663;-84
2022/11/16 12:25:02;;;;;;;3.00;2.70;;;13.20;99.90;;;;;;4874806;29;20213;-83
2022/11/16 12:27:37;;;;;;;8.60;7.90;;;13.20;99.90;;;;;;4868917;29;20210;-83
2022/11/16 12:30:11;;;;;;;5.10;4.10;;;13.10;99.90;;;;;;4878890;29;20209;-83
2022/11/16 12:32:57;;;;;;;11.13;10.40;;;13.10;99.90;;;;;;4873433;29;20228;-81
2022/11/16 12:35:44;;;;;;;6.80;6.40;;;12.90;99.90;;;;;;4878780;29;20209;-83
2022/11/16 12:38:26;;;;;;;10.63;10.03;;;12.90;99.90;;;;;;4894620;29;20216;-83
2022/11/16 12:41:07;;;;;;;3.30;2.90;;;12.80;99.90;;;;;;4879916;29;20299;-83
2022/11/16 12:43:44;;;;;;;12.00;11.23;;;12.60;99.90;;;;;;4874400;29;20226;-83
2022/11/16 12:46:20;;;;;;;11.43;10.73;;;12.70;99.90;;;;;;4881662;29;20211;-83
2022/11/16 12:49:12;;;;;;;11.40;10.70;;;12.70;99.90;;;;;;4873316;29;20213;-84
2022/11/16 12:51:55;;;;;;;11.17;10.47;;;12.60;99.90;;;;;;4875619;29;20224;-83
2022/11/16 12:54:37;;;;;;;11.30;10.70;;;12.50;99.90;;;;;;4873593;29;20681;-84
2022/11/16 12:57:11;;;;;;;11.13;10.43;;;12.50;99.90;;;;;;4880411;29;20233;-83
2022/11/16 12:59:55;;;;;;;11.00;10.40;;;12.40;99.90;;;;;;4871964;29;20589;-84
2022/11/16 13:02:31;;;;;;;10.43;9.73;;;12.30;99.90;;;;;;4877286;29;20235;-83
2022/11/16 13:05:05;;;;;;;10.83;10.03;;;12.30;99.90;;;;;;4876973;29;20204;-83
2022/11/16 13:07:38;;;;;;;10.20;9.60;;;12.20;99.90;;;;;;4874847;29;20541;-83
2022/11/16 13:10:14;;;;;;;10.80;9.90;;;12.20;99.90;;;;;;4877654;29;20229;-83
2022/11/16 13:12:44;;;;;;;10.07;9.47;;;12.20;99.90;;;;;;4874416;29;20277;-83
2022/11/16 13:15:18;;;;;;;9.97;9.40;;;12.20;99.90;;;;;;4872337;29;20588;-83
2022/11/16 13:17:50;;;;;;;10.77;10.07;;;12.10;99.90;;;;;;4877651;29;20220;-83
2022/11/16 13:20:29;;;;;;;10.57;9.90;;;12.10;99.90;;;;;;4881896;29;20203;-83
2022/11/16 13:23:01;;;;;;;10.83;10.23;;;12.20;99.90;;;;;;4868218;29;20581;-82
2022/11/16 13:25:34;;;;;;;10.40;9.80;;;12.10;99.90;;;;;;4891251;29;20207;-81
2022/11/16 13:28:12;;;;;;;11.00;10.33;;;12.10;99.90;;;;;;4871715;29;20208;-82
2022/11/16 13:30:46;;;;;;;11.00;10.30;;;12.20;99.90;;;;;;4875811;29;20689;-83
2022/11/16 13:33:32;;;;;;;11.03;10.37;;;12.20;99.90;;;;;;4870033;29;20684;-83
2022/11/16 13:35:58;;;;;;;10.20;9.60;;;12.20;99.90;;;;;;4873224;29;20214;-83
2022/11/16 13:38:50;;;;;;;11.13;10.23;;;12.30;99.90;;;;;;4869961;29;20221;-83
2022/11/16 13:41:26;;;;;;;10.70;10.10;;;12.40;99.90;;;;;;4863024;29;20290;-83
2022/11/16 13:43:53;;;;;;;10.37;9.87;;;12.40;99.90;;;;;;4870136;29;20220;-83
2022/11/16 13:46:20;;;;;;;10.47;9.87;;;12.30;99.90;;;;;;4871406;29;20191;-83
2022/11/16 13:48:48;;;;;;;10.13;9.53;;;12.30;99.90;;;;;;4874269;29;20200;-83
2022/11/16 13:51:19;;;;;;;10.07;9.47;;;12.30;99.90;;;;;;4870936;29;20227;-84
2022/11/16 13:53:50;;;;;;;10.67;9.90;;;12.30;99.90;;;;;;4874427;29;20686;-83
2022/11/16 13:56:19;;;;;;;10.00;9.40;;;12.30;99.90;;;;;;4869649;29;20220;-83
2022/11/16 13:58:49;;;;;;;10.00;9.30;;;12.20;99.90;;;;;;4879507;29;20196;-83
2022/11/16 14:01:17;;;;;;;10.33;9.70;;;12.30;99.90;;;;;;4872132;29;20232;-83
2022/11/16 14:03:45;;;;;;;10.07;9.50;;;12.40;99.90;;;;;;4874467;29;20701;-82
2022/11/16 14:06:49;;;;;;;9.90;9.40;;;12.40;99.90;;;;;;4871010;29;20208;-83
2022/11/16 14:09:46;;;;;;;10.20;9.60;;;12.40;99.90;;;;;;4876398;29;20267;-83
2022/11/16 14:12:55;;;;;;;10.40;9.80;;;12.40;99.90;;;;;;4870763;29;20242;-83
2022/11/16 14:15:31;;;;;;;9.67;9.17;;;12.30;99.90;;;;;;4875432;29;20208;-83
2022/11/16 14:18:15;;;;;;;10.40;9.80;;;12.30;99.90;;;;;;4876559;29;20223;-83
2022/11/16 14:20:56;;;;;;;9.90;9.40;;;12.40;99.90;;;;;;4861252;29;20207;-83
2022/11/16 14:23:30;;;;;;;10.00;9.50;;;12.50;99.90;;;;;;4870950;29;20228;-83
2022/11/16 14:26:10;;;;;;;9.80;9.30;;;12.50;99.90;;;;;;4871049;29;20214;-83
2022/11/16 14:28:55;;;;;;;10.00;9.50;;;12.50;99.90;;;;;;4873560;29;20205;-83
2022/11/16 14:31:27;;;;;;;10.70;9.80;;;12.40;99.90;;;;;;4874679;29;20256;-83
2022/11/16 14:33:57;;;;;;;10.40;9.80;;;12.40;99.90;;;;;;4870735;29;20268;-83
2022/11/16 14:36:38;;;;;;;9.90;9.30;;;12.40;99.90;;;;;;4871892;29;20748;-82
2022/11/16 14:39:28;;;;;;;10.13;9.60;;;12.40;99.90;;;;;;4871728;29;20200;-83
2022/11/16 14:41:57;;;;;;;10.10;9.50;;;12.40;99.90;;;;;;4868541;29;20233;-83
2022/11/16 14:44:29;;;;;;;10.30;9.70;;;12.40;99.90;;;;;;4874793;29;20197;-83
2022/11/16 14:46:57;;;;;;;10.23;9.63;;;12.40;99.90;;;;;;4874196;29;20212;-83
2022/11/16 14:49:25;;;;;;;10.20;9.60;;;12.40;99.90;;;;;;4876257;29;20678;-83
2022/11/16 14:51:55;;;;;;;10.33;9.73;;;12.40;99.90;;;;;;4873495;29;20229;-81
2022/11/16 14:54:28;;;;;;;10.43;9.83;;;12.30;99.90;;;;;;4871628;29;20217;-82
2022/11/16 14:56:56;;;;;;;10.00;9.40;;;12.20;99.90;;;;;;4882435;29;20231;-83
2022/11/16 14:59:23;;;;;;;9.90;9.40;;;12.10;99.90;;;;;;4874060;29;20212;-82
2022/11/16 15:01:51;;;;;;;10.23;9.63;;;12.10;99.90;;;;;;4873747;29;20237;-81
2022/11/16 15:04:20;;;;;;;10.40;9.70;;;12.10;99.90;;;;;;4873655;29;20212;-82
2022/11/16 15:06:51;;;;;;;10.60;9.90;;;11.90;99.90;;;;;;4876989;29;20745;-83
2022/11/16 15:09:24;;;;;;;9.90;9.40;;;11.90;99.90;;;;;;4876249;29;20218;-83
2022/11/16 15:14:41;;;;;;;11.30;9.10;;;11.70;99.90;;;;;;4873910;29;20204;-82
2022/11/16 15:17:08;;;;;;;10.10;9.50;;;11.60;99.90;;;;;;4881702;29;20220;-83
2022/11/16 15:19:36;;;;;;;9.53;8.93;;;11.50;99.90;;;;;;4877233;29;20211;-82
2022/11/16 15:22:05;;;;;;;10.20;9.50;;;11.30;99.90;;;;;;4876924;29;20227;-83
2022/11/16 15:24:33;;;;;;;10.00;9.40;;;11.30;99.90;;;;;;4879699;29;20293;-82
2022/11/16 15:27:10;;;;;;;9.37;8.80;;;11.10;99.90;;;;;;4875183;29;20230;-83
2022/11/16 15:29:37;;;;;;;9.20;8.70;;;11.00;99.90;;;;;;4865305;29;20230;-81
2022/11/16 15:32:06;;;;;;;10.00;9.40;;;10.90;99.90;;;;;;4879307;29;20227;-81
2022/11/16 15:34:33;;;;;;;10.10;9.50;;;10.80;99.90;;;;;;4875808;29;20220;-81
2022/11/16 15:37:01;;;;;;;10.40;9.70;;;10.60;99.90;;;;;;4879406;29;20226;-82
2022/11/16 15:39:34;;;;;;;11.03;10.33;;;10.50;99.90;;;;;;4870569;29;20207;-77
2022/11/16 15:42:01;;;;;;;10.97;10.30;;;10.40;99.90;;;;;;4878095;29;20233;-78
2022/11/16 15:44:28;;;;;;;10.93;10.23;;;10.20;99.90;;;;;;4876928;29;20207;-78
2022/11/16 15:46:56;;;;;;;11.87;11.07;;;10.10;99.90;;;;;;4876368;29;20220;-79
2022/11/16 15:49:29;;;;;;;11.30;10.60;;;10.00;99.90;;;;;;4875976;29;20561;-78
2022/11/16 15:51:57;;;;;;;12.67;11.70;;;9.80;99.90;;;;;;4876500;29;20380;-78
2022/11/16 15:54:28;;;;;;;12.30;11.43;;;9.70;99.90;;;;;;4877124;29;20579;-78
2022/11/16 15:56:57;;;;;;;12.00;11.10;;;9.60;99.90;;;;;;4866416;29;20220;-79
2022/11/16 15:59:28;;;;;;;12.70;11.70;;;9.50;99.90;;;;;;4862062;29;20229;-78
2022/11/16 16:01:55;;;;;;;12.30;11.50;;;9.40;99.90;;;;;;4873152;29;20253;-78
2022/11/16 16:04:23;;;;;;;11.70;10.97;;;9.40;99.90;;;;;;4884165;29;20210;-78
2022/11/16 16:06:51;;;;;;;13.00;12.10;;;9.30;99.90;;;;;;4875684;29;20232;-78
2022/11/16 16:09:23;;;;;;;13.93;12.73;;;9.30;99.90;;;;;;4878974;29;20697;-79
2022/11/16 16:11:52;;;;;;;13.17;12.17;;;9.20;99.90;;;;;;4881265;29;20237;-78
2022/11/16 16:14:24;;;;;;;14.43;13.23;;;9.10;99.90;;;;;;4878096;29;20227;-79
2022/11/16 16:16:53;;;;;;;15.23;13.77;;;9.00;99.90;;;;;;4872941;29;20221;-78
2022/11/16 16:19:38;;;;;;;21.07;18.80;;;9.00;99.90;;;;;;4867773;29;20216;-78
2022/11/16 16:22:12;;;;;;;23.77;21.30;;;8.90;99.90;;;;;;4876684;29;20217;-78
2022/11/16 16:24:41;;;;;;;21.20;19.10;;;8.80;99.90;;;;;;4887955;29;20734;-78
2022/11/16 16:27:16;;;;;;;19.97;17.97;;;8.80;99.90;;;;;;4880224;29;20706;-78
2022/11/16 16:29:43;;;;;;;19.40;17.53;;;8.80;99.90;;;;;;4875442;29;20192;-78
2022/11/16 16:32:20;;;;;;;16.93;15.53;;;8.80;99.90;;;;;;4872508;29;20233;-81
2022/11/16 16:34:47;;;;;;;16.33;14.97;;;8.80;99.90;;;;;;4880289;29;20217;-81
2022/11/16 16:37:14;;;;;;;15.43;13.93;;;8.80;99.90;;;;;;4879788;29;20221;-82
2022/11/16 16:39:41;;;;;;;15.60;14.10;;;8.70;99.90;;;;;;4876972;29;20205;-82
2022/11/16 16:42:11;;;;;;;14.67;13.33;;;8.70;99.90;;;;;;4887397;29;20231;-81
2022/11/16 16:44:39;;;;;;;14.57;13.40;;;8.60;99.90;;;;;;4880584;29;20237;-83